Thursday, July 18, 2019, 9:16 AM EDT
Back to Local

KEWN, New Bern, Craven County Regional Airport

Location: New Bern, NC, United States Lat: 35.068
Local Time: 9:16 AM EDT (13:16 GMT) Lon: -77.047
Time Zone: US/Eastern Elev: 16 ft

Show me the last for .
Show Decoded

2019-07-18 08:54 METAR KEWN 181254Z 22008KT 10SM FEW013 28/27 A3001 RMK AO2 SLP160 T02830267 =
2019-07-18 07:54 METAR KEWN 181154Z 21007KT 10SM CLR 27/26 A3000 RMK AO2 SLP159 T02720261 10272
                 20261 53002 =
2019-07-18 06:54 METAR KEWN 181054Z 20006KT 10SM CLR 27/26 A2999 RMK AO2 SLP155 T02670261 =
2019-07-18 05:54 METAR KEWN 180954Z 20006KT 10SM CLR 27/26 A2999 RMK AO2 SLP155 T02670256 =
2019-07-18 04:54 METAR KEWN 180854Z AUTO 18006KT 10SM CLR 26/26 A3000 RMK AO2 SLP157 T02610256
                 58010 =
2019-07-18 03:54 METAR KEWN 180754Z AUTO 19003KT 10SM CLR 26/26 A3001 RMK AO2 SLP162 T02610256 =
2019-07-18 02:54 METAR KEWN 180654Z AUTO 24004KT 10SM FEW075 26/26 A3003 RMK AO2 SLP167 T02610256
                 =
2019-07-18 01:54 METAR KEWN 180554Z AUTO 21006KT 10SM CLR 27/26 A3003 RMK AO2 SLP167 T02670256
                 10289 20267 50003 =
2019-07-18 00:54 METAR KEWN 180454Z AUTO 21006KT 10SM CLR 27/26 A3003 RMK AO2 SLP168 T02670256
                 403440256 =
2019-07-17 23:54 METAR KEWN 180354Z AUTO 20009KT 10SM CLR 27/26 A3002 RMK AO2 SLP166 T02720256 =
2019-07-17 22:54 METAR KEWN 180254Z AUTO 20008KT 10SM CLR 27/25 A3002 RMK AO2 SLP164 T02720250
                 51000 =
2019-07-17 21:54 METAR KEWN 180154Z AUTO 18007KT 10SM CLR 27/25 A3002 RMK AO2 SLP164 T02720250 =
2019-07-17 20:54 METAR KEWN 180054Z 19007KT 10SM CLR 28/25 A3002 RMK AO2 SLP165 T02780250 =
2019-07-17 19:54 METAR KEWN 172354Z 18008KT 10SM CLR 29/25 A3002 RMK AO2 SLP164 T02890250 10344
                 20289 53000 =
2019-07-17 18:54 METAR KEWN 172254Z 19008KT 10SM CLR 31/24 A3001 RMK AO2 SLP163 T03060244 =
2019-07-17 17:54 METAR KEWN 172154Z 18012G20KT 10SM CLR 32/24 A3000 RMK AO2 SLP160 T03170244 =
2019-07-17 16:54 METAR KEWN 172054Z 17013KT 10SM CLR 33/26 A3002 RMK AO2 SLP164 T03280256 56017 =
2019-07-17 15:54 METAR KEWN 171954Z 18010KT 10SM CLR 33/27 A3003 RMK AO2 SLP167 T03330267 =
2019-07-17 14:54 METAR KEWN 171854Z 19008KT 10SM CLR 34/27 A3005 RMK AO2 SLP174 T03390272 =
2019-07-17 13:54 METAR KEWN 171754Z VRB05KT 10SM SCT041 34/26 A3006 RMK AO2 SLP180 T03440261
                 10344 20272 58011 =
2019-07-17 12:54 METAR KEWN 171654Z 18004KT 10SM FEW037 33/26 A3008 RMK AO2 SLP185 T03330261 =
2019-07-17 11:54 METAR KEWN 171554Z 26004KT 10SM CLR 33/26 A3009 RMK AO2 SLP189 T03280256 =
2019-07-17 10:54 METAR KEWN 171454Z 24005KT 10SM CLR 32/25 A3010 RMK AO2 SLP191 T03170250 58001 =
2019-07-17 09:54 METAR KEWN 171354Z 24006KT 10SM CLR 30/26 A3010 RMK AO2 SLP193 T03000261 =

Support USWX by starting your Amazon purchase here.